createdAt,value
2024-03-13T00:00:12.023Z,8.70
2024-03-13T00:03:19.140Z,9.40
2024-03-13T00:06:06.694Z,8.80
2024-03-13T00:08:54.602Z,8.90
2024-03-13T00:11:42.291Z,8.50
2024-03-13T00:14:29.681Z,8.90
2024-03-13T00:17:26.981Z,9.40
2024-03-13T00:20:14.135Z,9.30
2024-03-13T00:23:03.420Z,9.50
2024-03-13T00:25:50.722Z,9.30
2024-03-13T00:28:37.740Z,9.00
2024-03-13T00:31:24.613Z,9.40
2024-03-13T00:34:11.986Z,8.90
2024-03-13T00:36:59.349Z,8.80
2024-03-13T00:39:46.909Z,9.30
2024-03-13T00:42:34.262Z,9.40
2024-03-13T00:45:21.908Z,9.40
2024-03-13T00:48:08.928Z,8.60
2024-03-13T00:51:01.864Z,8.90
2024-03-13T00:53:49.899Z,9.40
2024-03-13T00:56:39.580Z,9.00
2024-03-13T00:59:31.001Z,9.00
2024-03-13T01:02:18.134Z,9.10
2024-03-13T01:05:08.851Z,9.90
2024-03-13T01:07:58.185Z,9.90
2024-03-13T01:10:45.217Z,8.40
2024-03-13T01:13:32.400Z,8.90
2024-03-13T01:16:19.594Z,8.60
2024-03-13T01:19:06.698Z,8.90
2024-03-13T01:21:56.499Z,8.90
2024-03-13T01:24:44.636Z,8.60
2024-03-13T01:27:31.794Z,8.30
2024-03-13T01:30:19.209Z,9.50
2024-03-13T01:33:07.340Z,9.10
2024-03-13T01:35:54.365Z,9.30
2024-03-13T01:38:41.283Z,8.60
2024-03-13T01:41:46.936Z,8.90
2024-03-13T01:44:54.680Z,8.90
2024-03-13T01:48:00.264Z,8.40
2024-03-13T01:51:06.499Z,9.10
2024-03-13T01:54:12.009Z,8.50
2024-03-13T01:57:04.180Z,8.40
2024-03-13T02:00:11.131Z,9.50
2024-03-13T02:02:58.252Z,9.50
2024-03-13T02:05:48.794Z,9.00
2024-03-13T02:08:37.435Z,8.80
2024-03-13T02:11:26.699Z,9.30
2024-03-13T02:14:16.254Z,8.90
2024-03-13T02:17:03.761Z,8.90
2024-03-13T02:19:55.654Z,8.90
2024-03-13T02:22:42.933Z,8.70
2024-03-13T02:25:35.722Z,9.10
2024-03-13T02:28:36.422Z,8.60
2024-03-13T02:31:23.597Z,8.20
2024-03-13T02:34:11.996Z,9.00
2024-03-13T02:37:00.273Z,9.20
2024-03-13T02:39:47.994Z,8.80
2024-03-13T02:42:34.975Z,9.00
2024-03-13T02:45:23.403Z,8.90
2024-03-13T02:48:15.440Z,8.80
2024-03-13T02:51:02.464Z,8.70
2024-03-13T02:53:49.881Z,8.40
2024-03-13T02:56:37.452Z,9.20
2024-03-13T02:59:26.597Z,8.80
2024-03-13T03:02:14.032Z,8.80
2024-03-13T03:05:01.184Z,8.70
2024-03-13T03:07:48.202Z,9.10
2024-03-13T03:10:35.321Z,8.40
2024-03-13T03:13:22.779Z,8.80
2024-03-13T03:16:10.056Z,8.30
2024-03-13T03:18:57.378Z,8.60
2024-03-13T03:21:45.080Z,8.40
2024-03-13T03:24:32.529Z,8.90
2024-03-13T03:27:20.055Z,8.50
2024-03-13T03:30:07.756Z,9.20
2024-03-13T03:32:57.515Z,8.70
2024-03-13T03:35:45.466Z,8.30
2024-03-13T03:38:33.555Z,8.40
2024-03-13T03:41:20.429Z,8.60
2024-03-13T03:44:07.425Z,9.00
2024-03-13T03:46:54.961Z,8.20
2024-03-13T03:49:42.429Z,8.70
2024-03-13T03:52:29.460Z,7.90
2024-03-13T03:55:16.826Z,8.40
2024-03-13T03:58:04.097Z,8.10
2024-03-13T04:00:51.279Z,8.30
2024-03-13T04:03:38.370Z,8.60
2024-03-13T04:06:27.040Z,7.70
2024-03-13T04:09:17.438Z,8.90
2024-03-13T04:12:04.444Z,8.40
2024-03-13T04:14:52.299Z,8.20
2024-03-13T04:17:41.446Z,8.40
2024-03-13T04:20:28.488Z,7.70
2024-03-13T04:23:15.793Z,8.20
2024-03-13T04:26:06.384Z,8.50
2024-03-13T04:28:54.192Z,8.30
2024-03-13T04:31:41.772Z,8.20
2024-03-13T04:34:29.029Z,8.10
2024-03-13T04:37:17.098Z,7.70
2024-03-13T04:40:09.354Z,7.90
2024-03-13T04:42:56.492Z,7.90
2024-03-13T04:45:43.483Z,8.30
2024-03-13T04:48:30.498Z,8.10
2024-03-13T04:51:17.508Z,7.90
2024-03-13T04:54:07.808Z,7.70
2024-03-13T04:56:55.243Z,7.90
2024-03-13T04:59:44.319Z,7.80
2024-03-13T05:02:31.415Z,7.60
2024-03-13T05:05:18.423Z,8.00
2024-03-13T05:08:09.507Z,8.60
2024-03-13T05:10:57.908Z,7.60
2024-03-13T05:13:47.883Z,7.70
2024-03-13T05:16:34.922Z,7.60
2024-03-13T05:19:22.066Z,7.50
2024-03-13T05:22:10.659Z,8.00
2024-03-13T05:24:59.921Z,7.60
2024-03-13T05:27:48.073Z,7.00
2024-03-13T05:30:35.879Z,7.60
2024-03-13T05:33:22.837Z,7.80
2024-03-13T05:36:13.248Z,7.50
2024-03-13T05:39:00.428Z,7.50
2024-03-13T05:41:51.354Z,7.80
2024-03-13T05:44:39.784Z,7.50
2024-03-13T05:47:27.516Z,7.70
2024-03-13T05:50:18.859Z,7.60
2024-03-13T05:53:05.976Z,7.70
2024-03-13T05:55:53.106Z,7.40
2024-03-13T05:58:42.945Z,7.50
2024-03-13T06:01:30.356Z,7.80
2024-03-13T06:04:21.609Z,7.80
2024-03-13T06:07:09.280Z,6.50
2024-03-13T06:09:56.369Z,7.20
2024-03-13T06:12:43.469Z,7.60
2024-03-13T06:15:31.026Z,7.80
2024-03-13T06:18:19.985Z,8.20
2024-03-13T06:21:08.629Z,7.20
2024-03-13T06:24:02.059Z,8.20
2024-03-13T06:26:51.854Z,8.90
2024-03-13T06:29:58.726Z,11.20
2024-03-13T06:32:46.806Z,20.70
2024-03-13T06:35:34.808Z,42.80
2024-03-13T06:38:22.188Z,29.50
2024-03-13T06:41:10.225Z,32.50
2024-03-13T06:43:57.209Z,34.50
2024-03-13T06:46:44.500Z,34.50
2024-03-13T06:49:31.722Z,31.30
2024-03-13T06:52:18.930Z,30.40
2024-03-13T06:55:06.394Z,28.90
2024-03-13T06:57:53.412Z,28.90
2024-03-13T07:00:42.519Z,29.80
2024-03-13T07:03:30.421Z,30.30
2024-03-13T07:06:19.641Z,28.30
2024-03-13T07:09:08.616Z,27.30
2024-03-13T07:11:58.980Z,27.00
2024-03-13T07:14:46.249Z,26.00
2024-03-13T07:17:33.143Z,28.70
2024-03-13T07:20:20.062Z,26.20
2024-03-13T07:23:10.150Z,26.50
2024-03-13T07:25:57.558Z,25.20
2024-03-13T07:28:44.702Z,26.90
2024-03-13T07:31:32.119Z,24.80
2024-03-13T07:34:20.795Z,24.50
2024-03-13T07:37:08.053Z,24.00
2024-03-13T07:39:58.659Z,25.70
2024-03-13T07:42:45.820Z,26.80
2024-03-13T07:45:32.953Z,26.70
2024-03-13T07:48:19.816Z,22.90
2024-03-13T07:51:11.054Z,23.20
2024-03-13T07:53:59.917Z,24.10
2024-03-13T07:56:47.143Z,23.80
2024-03-13T07:59:34.140Z,23.90
2024-03-13T08:02:21.620Z,23.50
2024-03-13T08:05:08.785Z,22.90
2024-03-13T09:05:57.614Z,19.50
2024-03-13T09:08:50.662Z,19.60
2024-03-13T09:11:40.760Z,18.90
2024-03-13T09:14:28.445Z,18.30
2024-03-13T09:17:15.430Z,18.20
2024-03-13T09:20:03.117Z,19.10
2024-03-13T09:22:50.173Z,18.50
2024-03-13T09:25:37.285Z,17.90
2024-03-13T09:28:25.286Z,17.50
2024-03-13T09:31:12.715Z,18.20
2024-03-13T09:34:00.984Z,18.10
2024-03-13T09:36:48.054Z,17.10
2024-03-13T09:39:36.988Z,16.20
2024-03-13T09:42:25.351Z,16.70
2024-03-13T09:45:18.015Z,15.80
2024-03-13T09:48:06.699Z,16.80
2024-03-13T09:50:55.507Z,17.10
2024-03-13T09:53:43.489Z,16.70
2024-03-13T09:56:32.179Z,16.50
2024-03-13T09:59:19.297Z,17.10
2024-03-13T10:02:15.745Z,16.60
2024-03-13T10:05:04.451Z,16.30
2024-03-13T10:07:51.822Z,16.40
2024-03-13T10:10:42.165Z,16.50
2024-03-13T10:13:34.888Z,15.70
2024-03-13T10:16:24.011Z,15.20
2024-03-13T10:19:19.037Z,16.20
2024-03-13T10:22:08.344Z,15.50
2024-03-13T10:25:00.291Z,15.30
2024-03-13T10:27:47.440Z,15.00
2024-03-13T10:30:34.486Z,16.20
2024-03-13T10:33:24.371Z,15.40
2024-03-13T10:36:15.612Z,14.90
2024-03-13T10:39:05.536Z,16.70
2024-03-13T10:41:52.806Z,15.10
2024-03-13T10:44:40.068Z,14.40
2024-03-13T10:47:30.394Z,14.80
2024-03-13T10:50:17.492Z,14.60
2024-03-13T10:53:07.562Z,13.40
2024-03-13T10:55:54.732Z,14.90
2024-03-13T10:58:44.165Z,13.90
2024-03-13T11:01:34.127Z,14.30
2024-03-13T11:04:21.947Z,13.70
2024-03-13T11:07:14.036Z,13.40
2024-03-13T11:10:01.079Z,13.80
2024-03-13T11:12:52.611Z,12.30
2024-03-13T11:15:45.824Z,13.50
2024-03-13T11:18:33.311Z,13.20
2024-03-13T11:21:41.047Z,13.50
2024-03-13T11:24:32.936Z,13.10
2024-03-13T11:27:26.666Z,13.20
2024-03-13T11:30:21.269Z,13.50
2024-03-13T11:33:11.339Z,13.00
2024-03-13T11:36:02.838Z,13.20
2024-03-13T11:38:50.301Z,12.60
2024-03-13T11:41:37.517Z,12.70
2024-03-13T11:44:29.028Z,12.20
2024-03-13T11:47:17.921Z,12.10
2024-03-13T11:50:10.665Z,12.70
2024-03-13T11:53:03.816Z,12.40
2024-03-13T11:55:54.425Z,12.20
2024-03-13T11:58:42.633Z,12.50
2024-03-13T12:01:32.051Z,12.10
2024-03-13T12:04:20.958Z,12.10
2024-03-13T12:07:18.448Z,12.20
2024-03-13T12:10:05.957Z,11.60
2024-03-13T12:12:54.086Z,11.20
2024-03-13T12:15:45.626Z,11.70
2024-03-13T12:18:34.825Z,12.30
2024-03-13T12:21:26.987Z,10.80
2024-03-13T12:24:14.488Z,11.50
2024-03-13T12:27:01.821Z,11.70
2024-03-13T12:29:50.083Z,11.10
2024-03-13T12:32:37.337Z,11.20
2024-03-13T12:35:26.571Z,10.90
2024-03-13T12:38:16.099Z,11.50
2024-03-13T12:41:03.510Z,10.90
2024-03-13T12:43:52.581Z,11.50
2024-03-13T12:46:41.602Z,10.80
2024-03-13T12:49:28.752Z,10.00
2024-03-13T12:52:16.622Z,10.70
2024-03-13T12:55:11.788Z,10.90
2024-03-13T12:58:07.056Z,10.70
2024-03-13T13:00:54.121Z,10.50
2024-03-13T13:03:42.570Z,11.20
2024-03-13T13:06:31.569Z,10.20
2024-03-13T13:09:19.598Z,10.70
2024-03-13T13:12:14.741Z,10.90
2024-03-13T13:15:02.692Z,10.60
2024-03-13T13:17:53.492Z,10.60
2024-03-13T13:20:42.281Z,10.00
2024-03-13T13:23:29.420Z,10.10
2024-03-13T13:26:16.860Z,10.30
2024-03-13T13:31:54.022Z,9.70
2024-03-13T13:34:40.951Z,9.90
2024-03-13T13:37:28.859Z,9.60
2024-03-13T13:40:18.095Z,10.40
2024-03-13T13:43:08.217Z,10.40
2024-03-13T13:45:55.280Z,9.90
2024-03-13T13:48:44.617Z,9.40
2024-03-13T13:51:32.010Z,9.40
2024-03-13T13:54:19.655Z,10.20
2024-03-13T13:57:10.309Z,9.50
2024-03-13T13:59:58.839Z,8.80
2024-03-13T14:02:50.092Z,9.10
2024-03-13T14:05:37.510Z,9.60
2024-03-13T14:08:24.789Z,9.20
2024-03-13T14:11:12.342Z,9.30
2024-03-13T14:14:01.271Z,8.60
2024-03-13T14:16:48.380Z,9.10
2024-03-13T14:19:36.797Z,9.40
2024-03-13T14:22:23.856Z,8.80
2024-03-13T14:25:15.164Z,9.10
2024-03-13T14:28:02.179Z,9.20
2024-03-13T14:30:52.986Z,9.90
2024-03-13T14:33:41.525Z,8.90
2024-03-13T14:36:29.584Z,8.60
2024-03-13T14:39:18.179Z,9.20
2024-03-13T14:42:15.353Z,8.80
2024-03-13T14:45:08.554Z,9.20
2024-03-13T14:47:58.109Z,8.90
2024-03-13T14:50:45.383Z,8.80
2024-03-13T14:53:32.469Z,8.50
2024-03-13T14:56:20.506Z,8.50
2024-03-13T14:59:07.515Z,8.90
2024-03-13T15:01:54.631Z,8.80
2024-03-13T15:04:41.747Z,8.30
2024-03-13T15:07:28.953Z,8.40
2024-03-13T15:10:17.635Z,8.30
2024-03-13T15:13:07.357Z,8.30
2024-03-13T15:15:54.831Z,7.70
2024-03-13T15:18:44.011Z,7.90
2024-03-13T15:21:31.594Z,8.20
2024-03-13T15:24:21.262Z,8.50
2024-03-13T15:27:09.002Z,8.50
2024-03-13T15:29:56.183Z,8.20
2024-03-13T15:32:43.575Z,8.80
2024-03-13T15:35:31.514Z,8.80
2024-03-13T15:38:18.526Z,8.20
2024-03-13T15:41:06.663Z,7.90
2024-03-13T15:43:54.329Z,7.90
2024-03-13T15:46:43.218Z,7.80
2024-03-13T15:49:30.276Z,8.50
2024-03-13T15:52:19.656Z,7.40
2024-03-13T15:55:09.462Z,7.40
2024-03-13T15:57:56.665Z,7.10
2024-03-13T16:00:43.979Z,7.40
2024-03-13T16:03:31.011Z,7.60
2024-03-13T16:06:19.362Z,7.30
2024-03-13T16:09:12.177Z,7.30
2024-03-13T16:12:04.289Z,8.00
2024-03-13T16:14:52.180Z,7.20
2024-03-13T16:17:40.131Z,7.30
2024-03-13T16:20:27.839Z,7.60
2024-03-13T16:23:15.217Z,7.10
2024-03-13T16:26:02.326Z,7.50
2024-03-13T16:28:50.669Z,11.10
2024-03-13T16:31:37.591Z,8.90
2024-03-13T16:34:25.161Z,9.00
2024-03-13T16:37:17.383Z,8.70
2024-03-13T16:40:05.501Z,9.00
2024-03-13T16:42:53.678Z,10.60
2024-03-13T16:45:40.695Z,8.90
2024-03-13T16:48:28.249Z,8.50
2024-03-13T16:51:15.413Z,8.40
2024-03-13T16:54:02.581Z,8.70
2024-03-13T16:56:49.675Z,9.00
2024-03-13T16:59:36.691Z,8.10
2024-03-13T17:02:24.258Z,8.20
2024-03-13T17:05:12.752Z,8.40
2024-03-13T17:08:01.726Z,8.10
2024-03-13T17:10:50.411Z,8.20
2024-03-13T17:13:42.385Z,8.00
2024-03-13T17:16:31.144Z,7.90
2024-03-13T17:19:23.338Z,8.00
2024-03-13T17:22:12.274Z,7.70
2024-03-13T17:24:59.290Z,8.10
2024-03-13T17:27:48.247Z,7.80
2024-03-13T17:30:35.721Z,7.70
2024-03-13T17:33:22.963Z,7.70
2024-03-13T17:36:18.651Z,8.00
2024-03-13T17:39:06.367Z,7.90
2024-03-13T17:41:53.893Z,7.90
2024-03-13T17:44:41.976Z,8.40
2024-03-13T17:47:29.911Z,8.00
2024-03-13T17:50:17.384Z,8.30
2024-03-13T17:53:05.298Z,8.50
2024-03-13T17:55:52.438Z,7.80
2024-03-13T17:58:40.883Z,7.70
2024-03-13T18:01:32.819Z,7.70
2024-03-13T18:04:20.618Z,7.90
2024-03-13T18:07:12.634Z,7.70
2024-03-13T18:09:59.697Z,7.20
2024-03-13T18:12:50.093Z,7.60
2024-03-13T18:15:38.128Z,7.80
2024-03-13T18:18:27.346Z,7.50
2024-03-13T18:21:15.057Z,7.40
2024-03-13T18:24:04.098Z,8.00
2024-03-13T18:26:51.803Z,7.30
2024-03-13T18:29:39.244Z,7.60
2024-03-13T18:32:26.798Z,7.80
2024-03-13T18:35:14.547Z,7.60
2024-03-13T18:38:02.034Z,7.50
2024-03-13T18:40:49.977Z,6.90
2024-03-13T18:43:36.942Z,7.10
2024-03-13T18:46:24.563Z,7.30
2024-03-13T18:49:12.221Z,7.40
2024-03-13T18:51:59.368Z,7.60
2024-03-13T18:54:46.905Z,7.00
2024-03-13T18:57:33.942Z,7.60
2024-03-13T19:00:23.095Z,7.30
2024-03-13T19:03:10.554Z,7.80
2024-03-13T19:05:58.726Z,7.50
2024-03-13T19:08:46.182Z,8.20
2024-03-13T19:11:34.244Z,7.60
2024-03-13T19:14:21.680Z,7.40
2024-03-13T19:17:11.764Z,7.30
2024-03-13T19:19:59.147Z,7.50
2024-03-13T19:22:47.222Z,7.10
2024-03-13T19:25:36.467Z,6.90
2024-03-13T19:28:24.911Z,7.30
2024-03-13T19:31:17.751Z,7.10
2024-03-13T19:34:08.974Z,7.20
2024-03-13T19:36:56.298Z,7.30
2024-03-13T19:39:43.685Z,6.90
2024-03-13T19:42:31.204Z,7.00
2024-03-13T19:45:18.449Z,7.00
2024-03-13T19:48:06.961Z,7.10
2024-03-13T19:50:54.670Z,7.20
2024-03-13T19:53:42.114Z,7.20
2024-03-13T19:56:29.771Z,6.50
2024-03-13T19:59:16.823Z,7.30
2024-03-13T20:02:04.866Z,6.90
2024-03-13T20:04:52.285Z,6.70
2024-03-13T20:07:43.632Z,6.60
2024-03-13T20:10:31.214Z,6.60
2024-03-13T20:13:18.444Z,7.10
2024-03-13T20:16:07.528Z,8.00
2024-03-13T20:18:54.861Z,6.80
2024-03-13T20:21:42.151Z,6.90
2024-03-13T20:24:29.469Z,7.30
2024-03-13T20:27:20.135Z,7.10
2024-03-13T20:30:09.049Z,6.80
2024-03-13T20:32:58.220Z,7.40
2024-03-13T20:35:46.789Z,6.70
2024-03-13T20:38:34.446Z,7.00
2024-03-13T20:41:21.835Z,7.00
2024-03-13T20:44:09.037Z,6.70
2024-03-13T20:46:57.845Z,6.80
2024-03-13T20:49:47.066Z,7.30
2024-03-13T20:52:34.993Z,7.00
2024-03-13T20:55:22.011Z,6.90
2024-03-13T20:58:09.136Z,7.10
2024-03-13T21:00:56.506Z,7.20
2024-03-13T21:03:43.697Z,7.00
2024-03-13T21:06:32.177Z,7.10
2024-03-13T21:09:23.576Z,7.20
2024-03-13T21:12:10.734Z,7.30
2024-03-13T21:14:59.127Z,7.10
2024-03-13T21:17:46.213Z,6.40
2024-03-13T21:20:33.616Z,7.20
2024-03-13T21:23:20.726Z,6.90
2024-03-13T21:26:08.905Z,6.90
2024-03-13T21:28:58.628Z,7.60
2024-03-13T21:31:46.535Z,6.90
2024-03-13T21:34:38.592Z,7.50
2024-03-13T21:37:28.342Z,7.70
2024-03-13T21:40:18.142Z,7.20
2024-03-13T21:43:05.154Z,7.80
2024-03-13T21:45:52.255Z,7.20
2024-03-13T21:48:39.503Z,7.50
2024-03-13T21:51:28.975Z,7.00
2024-03-13T21:54:15.928Z,7.70
2024-03-13T21:57:06.655Z,7.60
2024-03-13T21:59:53.847Z,7.40
2024-03-13T22:02:42.228Z,7.80
2024-03-13T22:05:29.750Z,7.60
2024-03-13T22:08:16.772Z,7.30
2024-03-13T22:11:05.957Z,7.50
2024-03-13T22:13:54.796Z,7.60
2024-03-13T22:16:41.912Z,8.20
2024-03-13T22:19:29.148Z,7.20
2024-03-13T22:22:16.467Z,7.30
2024-03-13T22:25:03.737Z,7.20
2024-03-13T22:27:51.212Z,7.70
2024-03-13T22:30:38.576Z,7.10
2024-03-13T22:33:25.952Z,7.80
2024-03-13T22:36:15.045Z,7.40
2024-03-13T22:39:02.385Z,7.60
2024-03-13T22:41:49.857Z,7.00
2024-03-13T22:44:37.092Z,7.50
2024-03-13T22:47:24.624Z,7.70
2024-03-13T22:50:12.995Z,7.30
2024-03-13T22:53:00.140Z,7.70
2024-03-13T22:55:48.423Z,8.10
2024-03-13T22:58:35.666Z,8.00
2024-03-13T23:01:24.670Z,7.50
2024-03-13T23:04:12.603Z,7.40
2024-03-13T23:06:59.692Z,7.20
2024-03-13T23:09:48.840Z,7.70
2024-03-13T23:12:36.754Z,7.10
2024-03-13T23:15:23.731Z,7.70
2024-03-13T23:18:11.316Z,7.50
2024-03-13T23:20:59.952Z,8.00
2024-03-13T23:23:47.771Z,7.60
2024-03-13T23:26:35.033Z,7.10
2024-03-13T23:29:22.036Z,8.00
2024-03-13T23:32:09.042Z,7.20
2024-03-13T23:34:56.514Z,7.10
2024-03-13T23:37:44.442Z,7.60
2024-03-13T23:40:31.999Z,7.20
2024-03-13T23:43:19.433Z,7.40
2024-03-13T23:46:06.866Z,7.30
2024-03-13T23:48:54.870Z,7.20
2024-03-13T23:51:44.336Z,7.10
2024-03-13T23:54:31.937Z,6.90
2024-03-13T23:57:19.058Z,7.70
